Valleyview, Canada
Current Conditions -  °F | °C
As of 3:00 AM on Monday 26 Jan 2015 (Local Time) from CYQU Reporting Station
Overcast Overcast  
Wind Chill: 37°   Ceiling: 12000
Heat Index: 37°   Visibility: 25mi
Dew Point: 30°   Wind: 2mph
Humidity: 75%   Direction: NA
Pressure: 29.8"   Gusts: NA
Location:  55.07°N, 117.28°W
Report Text: CYQU 261000Z VRB02KT 25SM OVC120 03/M01 A2980 RMK AC8 SLP116
Loading
Personal Weather Stations






























Interactive Weather Map New forecast layout! Learn more

10-Day Weather Forecast

Advertisements
Track Severe Weather on mobile